createdAt,value
2022-08-04T00:00:02.650Z,24.20
2022-08-04T00:03:28.383Z,24.10
2022-08-04T00:06:43.159Z,24.10
2022-08-04T00:09:59.133Z,24.10
2022-08-04T00:13:09.851Z,24.00
2022-08-04T00:16:32.940Z,23.90
2022-08-04T00:19:46.875Z,23.90
2022-08-04T00:22:55.601Z,23.90
2022-08-04T00:26:10.041Z,23.80
2022-08-04T00:29:17.637Z,23.80
2022-08-04T00:32:34.546Z,23.70
2022-08-04T00:35:42.456Z,23.70
2022-08-04T00:38:47.898Z,23.70
2022-08-04T00:42:16.934Z,23.60
2022-08-04T00:46:15.852Z,23.60
2022-08-04T00:49:59.599Z,23.60
2022-08-04T00:53:12.850Z,23.50
2022-08-04T00:56:49.766Z,23.50
2022-08-04T01:00:13.684Z,23.50
2022-08-04T01:03:37.587Z,23.40
2022-08-04T01:06:57.795Z,23.40
2022-08-04T01:10:12.134Z,23.40
2022-08-04T01:13:53.992Z,23.30
2022-08-04T01:17:17.746Z,23.30
2022-08-04T01:20:27.515Z,23.30
2022-08-04T01:24:09.021Z,23.20
2022-08-04T01:27:29.293Z,23.20
2022-08-04T01:30:45.193Z,23.20
2022-08-04T01:34:03.129Z,23.20
2022-08-04T01:37:22.071Z,23.20
2022-08-04T01:40:30.392Z,23.10
2022-08-04T01:43:42.614Z,23.10
2022-08-04T01:46:55.141Z,23.10
2022-08-04T01:50:08.154Z,23.00
2022-08-04T01:53:13.665Z,23.00
2022-08-04T01:56:21.546Z,23.00
2022-08-04T01:59:30.625Z,23.00
2022-08-04T02:02:38.516Z,23.00
2022-08-04T02:06:03.559Z,22.90
2022-08-04T02:09:19.784Z,22.90
2022-08-04T02:12:34.495Z,22.90
2022-08-04T02:15:57.282Z,22.80
2022-08-04T02:19:18.447Z,22.80
2022-08-04T02:22:28.191Z,22.80
2022-08-04T02:25:39.818Z,22.70
2022-08-04T02:28:51.126Z,22.70
2022-08-04T02:32:00.314Z,22.70
2022-08-04T02:35:11.696Z,22.70
2022-08-04T02:38:26.814Z,22.60
2022-08-04T02:41:33.493Z,22.60
2022-08-04T02:44:42.751Z,22.60
2022-08-04T02:48:29.356Z,22.60
2022-08-04T02:51:31.118Z,22.60
2022-08-04T02:54:42.736Z,22.50
2022-08-04T02:57:50.775Z,22.50
2022-08-04T03:00:55.914Z,22.50
2022-08-04T03:04:28.846Z,22.40
2022-08-04T03:08:08.970Z,22.40
2022-08-04T03:11:41.361Z,22.40
2022-08-04T03:15:35.865Z,22.40
2022-08-04T03:19:29.523Z,22.40
2022-08-04T03:23:13.386Z,22.40
2022-08-04T03:26:46.758Z,22.40
2022-08-04T03:30:09.804Z,22.40
2022-08-04T03:33:43.021Z,22.30
2022-08-04T03:37:22.160Z,22.30
2022-08-04T03:40:49.109Z,22.30
2022-08-04T03:44:38.276Z,22.30
2022-08-04T03:48:19.319Z,22.30
2022-08-04T03:51:53.543Z,22.30
2022-08-04T03:55:28.598Z,22.20
2022-08-04T03:58:58.251Z,22.20
2022-08-04T04:02:26.354Z,22.20
2022-08-04T04:06:15.048Z,22.20
2022-08-04T04:10:07.204Z,22.10
2022-08-04T04:13:39.566Z,22.10
2022-08-04T04:17:12.052Z,22.10
2022-08-04T04:20:46.548Z,22.10
2022-08-04T04:24:20.575Z,22.00
2022-08-04T04:27:48.363Z,22.00
2022-08-04T04:31:05.819Z,22.00
2022-08-04T04:34:28.147Z,22.00
2022-08-04T04:37:54.979Z,22.00
2022-08-04T04:41:14.442Z,22.00
2022-08-04T04:44:49.242Z,22.00
2022-08-04T04:48:08.677Z,22.00
2022-08-04T04:51:36.490Z,22.00
2022-08-04T04:54:54.210Z,22.00
2022-08-04T04:58:02.525Z,21.90
2022-08-04T05:01:37.411Z,22.00
2022-08-04T05:05:12.131Z,22.00
2022-08-04T05:08:44.908Z,22.00
2022-08-04T05:14:31.695Z,22.00
2022-08-04T05:15:58.953Z,22.00
2022-08-04T05:19:15.774Z,22.00
2022-08-04T05:22:27.082Z,22.00
2022-08-04T05:25:41.525Z,22.10
2022-08-04T05:28:57.196Z,22.10
2022-08-04T05:32:06.867Z,22.10
2022-08-04T05:35:50.511Z,22.20
2022-08-04T05:38:47.595Z,22.20
2022-08-04T05:41:58.531Z,22.20
2022-08-04T05:45:18.280Z,22.30
2022-08-04T05:48:24.140Z,22.30
2022-08-04T05:51:31.017Z,22.30
2022-08-04T05:54:38.866Z,22.40
2022-08-04T05:57:50.828Z,22.40
2022-08-04T06:00:59.722Z,22.50
2022-08-04T06:04:11.294Z,22.60
2022-08-04T06:07:17.168Z,22.70
2022-08-04T06:10:29.250Z,22.80
2022-08-04T06:13:50.310Z,22.90
2022-08-04T06:16:59.825Z,23.10
2022-08-04T06:20:20.275Z,23.30
2022-08-04T06:23:32.769Z,23.40
2022-08-04T06:26:40.396Z,23.60
2022-08-04T06:29:51.954Z,23.80
2022-08-04T06:33:03.382Z,24.00
2022-08-04T06:36:11.015Z,24.20
2022-08-04T06:39:18.695Z,24.40
2022-08-04T06:42:25.798Z,24.60
2022-08-04T06:45:38.525Z,24.80
2022-08-04T06:48:45.552Z,24.90
2022-08-04T06:51:51.213Z,25.00
2022-08-04T06:54:59.735Z,25.10
2022-08-04T06:58:08.841Z,25.20
2022-08-04T07:01:22.426Z,25.30
2022-08-04T07:04:27.626Z,25.40
2022-08-04T07:07:36.787Z,25.40
2022-08-04T07:10:44.519Z,25.50
2022-08-04T07:13:51.132Z,25.60
2022-08-04T07:17:00.100Z,25.80
2022-08-04T07:20:05.641Z,26.00
2022-08-04T07:23:13.040Z,26.10
2022-08-04T07:26:19.349Z,26.30
2022-08-04T07:29:25.113Z,26.50
2022-08-04T07:32:32.788Z,26.60
2022-08-04T07:36:08.353Z,26.90
2022-08-04T07:39:07.627Z,27.10
2022-08-04T07:42:13.362Z,27.30
2022-08-04T07:45:21.900Z,27.40
2022-08-04T07:48:30.067Z,27.60
2022-08-04T07:51:36.721Z,27.70
2022-08-04T07:54:43.356Z,27.80
2022-08-04T07:57:48.833Z,27.90
2022-08-04T08:00:54.879Z,28.00
2022-08-04T08:04:04.153Z,28.00
2022-08-04T08:07:09.456Z,28.10
2022-08-04T08:10:18.207Z,28.20
2022-08-04T08:13:24.299Z,28.20
2022-08-04T08:16:33.763Z,28.30
2022-08-04T08:19:41.618Z,28.40
2022-08-04T08:22:54.650Z,28.50
2022-08-04T08:26:00.040Z,28.70
2022-08-04T08:29:06.735Z,28.80
2022-08-04T08:32:15.397Z,28.90
2022-08-04T08:35:28.338Z,29.10
2022-08-04T08:38:48.747Z,29.30
2022-08-04T08:42:39.533Z,29.50
2022-08-04T08:46:13.993Z,29.70
2022-08-04T08:50:00.475Z,30.00
2022-08-04T08:53:41.281Z,30.20
2022-08-04T08:57:06.046Z,30.50
2022-08-04T09:00:19.502Z,30.70
2022-08-04T09:03:52.419Z,31.00
2022-08-04T09:07:13.157Z,31.10
2022-08-04T09:10:33.336Z,31.30
2022-08-04T09:13:48.438Z,31.60
2022-08-04T09:16:59.775Z,31.70
2022-08-04T09:20:10.133Z,31.90
2022-08-04T09:23:31.165Z,32.00
2022-08-04T09:26:59.762Z,32.20
2022-08-04T09:30:08.497Z,32.40
2022-08-04T09:33:45.413Z,32.40
2022-08-04T09:37:01.051Z,32.50
2022-08-04T09:40:14.478Z,32.60
2022-08-04T09:44:41.766Z,32.60
2022-08-04T09:47:16.259Z,32.70
2022-08-04T09:50:37.091Z,32.70
2022-08-04T09:53:55.273Z,32.70
2022-08-04T09:57:10.412Z,32.70
2022-08-04T10:00:20.897Z,32.70
2022-08-04T10:03:55.469Z,32.70
2022-08-04T10:07:21.803Z,32.70
2022-08-04T10:10:38.840Z,32.80
2022-08-04T10:13:54.907Z,32.90
2022-08-04T10:17:14.548Z,33.00
2022-08-04T10:20:45.827Z,33.10
2022-08-04T10:24:13.298Z,33.30
2022-08-04T10:27:28.613Z,33.50
2022-08-04T10:30:38.518Z,33.70
2022-08-04T10:33:54.048Z,33.90
2022-08-04T10:37:06.629Z,34.10
2022-08-04T10:40:30.969Z,34.20
2022-08-04T10:43:47.818Z,34.40
2022-08-04T10:46:57.178Z,34.60
2022-08-04T10:50:06.825Z,34.70
2022-08-04T10:53:22.014Z,34.90
2022-08-04T10:56:34.833Z,35.10
2022-08-04T10:59:46.075Z,35.20
2022-08-04T11:02:56.386Z,35.40
2022-08-04T11:06:07.228Z,35.50
2022-08-04T11:09:14.819Z,35.60
2022-08-04T11:12:31.317Z,35.70
2022-08-04T11:15:42.258Z,35.80
2022-08-04T11:18:56.929Z,35.80
2022-08-04T11:22:14.073Z,35.80
2022-08-04T11:25:23.694Z,35.80
2022-08-04T11:28:42.066Z,35.80
2022-08-04T11:31:52.107Z,35.80
2022-08-04T11:35:05.485Z,35.70
2022-08-04T11:38:24.171Z,35.60
2022-08-04T11:41:52.007Z,35.50
2022-08-04T11:45:04.711Z,35.40
2022-08-04T11:48:16.246Z,35.20
2022-08-04T11:51:22.408Z,35.00
2022-08-04T11:54:44.910Z,34.80
2022-08-04T11:58:03.080Z,34.60
2022-08-04T12:01:19.919Z,34.30
2022-08-04T12:04:39.067Z,34.00
2022-08-04T12:07:59.192Z,33.60
2022-08-04T12:11:16.332Z,33.10
2022-08-04T12:14:31.233Z,32.70
2022-08-04T12:17:53.272Z,32.30
2022-08-04T12:21:02.898Z,31.90
2022-08-04T12:24:16.887Z,31.50
2022-08-04T12:27:30.835Z,31.20
2022-08-04T12:30:59.026Z,30.90
2022-08-04T12:34:11.221Z,30.60
2022-08-04T12:37:24.672Z,30.30
2022-08-04T12:40:33.883Z,30.10
2022-08-04T12:43:47.071Z,29.80
2022-08-04T12:46:52.960Z,29.60
2022-08-04T12:50:02.397Z,29.40
2022-08-04T12:53:19.435Z,29.20
2022-08-04T12:56:38.698Z,29.00
2022-08-04T12:59:57.132Z,28.70
2022-08-04T13:03:09.687Z,28.60
2022-08-04T13:06:23.454Z,28.30
2022-08-04T13:09:33.041Z,28.20
2022-08-04T13:12:39.712Z,28.00
2022-08-04T13:15:58.999Z,27.90
2022-08-04T13:19:05.170Z,27.70
2022-08-04T13:22:10.931Z,27.60
2022-08-04T13:26:41.805Z,27.50
2022-08-04T13:28:53.190Z,27.40
2022-08-04T13:32:02.812Z,27.40
2022-08-04T13:35:12.122Z,27.30
2022-08-04T13:38:28.425Z,27.20
2022-08-04T13:41:34.063Z,27.20
2022-08-04T13:44:40.881Z,27.10
2022-08-04T13:47:51.755Z,27.10
2022-08-04T13:51:06.577Z,27.00
2022-08-04T13:54:17.518Z,27.00
2022-08-04T13:57:30.660Z,27.00
2022-08-04T14:00:49.455Z,27.00
2022-08-04T14:04:02.709Z,27.00
2022-08-04T14:07:19.442Z,27.00
2022-08-04T14:10:26.490Z,27.00
2022-08-04T14:13:41.014Z,27.00
2022-08-04T14:17:04.003Z,27.00
2022-08-04T14:20:15.108Z,27.00
2022-08-04T14:23:20.134Z,27.00
2022-08-04T14:26:30.211Z,27.00
2022-08-04T14:29:41.987Z,27.00
2022-08-04T14:32:58.232Z,27.00
2022-08-04T14:36:07.217Z,27.10
2022-08-04T14:39:19.920Z,27.10
2022-08-04T14:42:43.231Z,27.20
2022-08-04T14:45:54.381Z,27.30
2022-08-04T14:49:10.505Z,27.30
2022-08-04T14:52:26.649Z,27.40
2022-08-04T14:55:34.022Z,27.50
2022-08-04T14:58:39.783Z,27.60
2022-08-04T15:01:46.014Z,27.70
2022-08-04T15:06:00.209Z,27.80
2022-08-04T15:08:37.240Z,27.90
2022-08-04T15:11:43.546Z,28.00
2022-08-04T15:14:48.701Z,28.10
2022-08-04T15:17:54.740Z,28.20
2022-08-04T15:21:06.587Z,28.20
2022-08-04T15:24:14.905Z,28.30
2022-08-04T15:27:21.440Z,28.40
2022-08-04T15:30:30.655Z,28.40
2022-08-04T15:33:36.663Z,28.40
2022-08-04T15:36:56.669Z,28.50
2022-08-04T15:40:14.818Z,28.50
2022-08-04T15:43:46.776Z,28.60
2022-08-04T15:47:15.502Z,28.60
2022-08-04T15:50:28.871Z,28.60
2022-08-04T15:54:02.435Z,28.60
2022-08-04T15:57:03.938Z,28.60
2022-08-04T16:00:15.083Z,28.60
2022-08-04T16:03:58.808Z,28.60
2022-08-04T16:07:08.361Z,28.60
2022-08-04T16:10:44.308Z,28.60
2022-08-04T16:14:13.849Z,28.50
2022-08-04T16:17:21.102Z,28.50
2022-08-04T16:20:26.289Z,28.50
2022-08-04T16:24:05.586Z,28.40
2022-08-04T16:27:12.426Z,28.40
2022-08-04T16:30:20.679Z,28.30
2022-08-04T16:33:43.967Z,28.30
2022-08-04T16:37:02.055Z,28.20
2022-08-04T16:40:36.598Z,28.20
2022-08-04T16:43:43.173Z,28.20
2022-08-04T16:47:08.096Z,28.10
2022-08-04T16:50:23.225Z,28.10
2022-08-04T16:53:53.137Z,28.00
2022-08-04T16:57:00.600Z,28.00
2022-08-04T17:00:07.438Z,28.00
2022-08-04T17:03:26.614Z,28.00
2022-08-04T17:06:37.975Z,27.90
2022-08-04T17:09:54.871Z,27.90
2022-08-04T17:13:28.064Z,27.90
2022-08-04T17:16:28.406Z,27.80
2022-08-04T17:19:36.197Z,27.80
2022-08-04T17:22:41.239Z,27.70
2022-08-04T17:25:54.838Z,27.60
2022-08-04T17:29:01.688Z,27.60
2022-08-04T17:32:07.334Z,27.50
2022-08-04T17:35:15.247Z,27.50
2022-08-04T17:38:20.316Z,27.50
2022-08-04T17:41:30.429Z,27.50
2022-08-04T17:44:45.818Z,27.40
2022-08-04T17:47:55.537Z,27.30
2022-08-04T17:51:18.477Z,27.30
2022-08-04T17:54:43.599Z,27.30
2022-08-04T17:57:52.437Z,27.20
2022-08-04T18:01:23.576Z,27.20
2022-08-04T18:04:41.231Z,27.10
2022-08-04T18:08:34.705Z,27.00
2022-08-04T18:11:42.198Z,27.00
2022-08-04T18:14:49.040Z,26.90
2022-08-04T18:18:21.850Z,26.80
2022-08-04T18:21:19.441Z,26.70
2022-08-04T18:24:36.186Z,26.70
2022-08-04T18:27:54.325Z,26.60
2022-08-04T18:30:59.371Z,26.50
2022-08-04T18:34:04.379Z,26.40
2022-08-04T18:38:04.300Z,26.40
2022-08-04T18:40:53.146Z,26.40
2022-08-04T18:43:59.758Z,26.30
2022-08-04T18:47:19.557Z,26.20
2022-08-04T18:51:10.001Z,26.10
2022-08-04T18:53:58.889Z,26.10
2022-08-04T18:57:32.528Z,26.00
2022-08-04T19:00:35.840Z,25.90
2022-08-04T19:03:41.209Z,25.90
2022-08-04T19:06:49.873Z,25.80
2022-08-04T19:09:58.461Z,25.70
2022-08-04T19:16:34.071Z,25.60
2022-08-04T19:19:49.612Z,25.50
2022-08-04T19:24:26.258Z,25.50
2022-08-04T19:29:48.062Z,25.30
2022-08-04T19:32:53.181Z,25.20
2022-08-04T19:35:58.285Z,25.20
2022-08-04T19:39:11.643Z,25.10
2022-08-04T19:42:17.072Z,25.00
2022-08-04T19:48:59.133Z,25.00
2022-08-04T19:52:07.215Z,24.80
2022-08-04T19:55:12.567Z,24.80
2022-08-04T19:58:17.846Z,24.70
2022-08-04T20:01:33.405Z,24.70
2022-08-04T20:04:51.335Z,24.60
2022-08-04T20:07:56.864Z,24.60
2022-08-04T20:11:02.051Z,24.50
2022-08-04T20:14:07.119Z,24.50
2022-08-04T20:17:17.780Z,24.50
2022-08-04T20:20:24.468Z,24.40
2022-08-04T20:23:47.962Z,24.30
2022-08-04T20:26:54.922Z,24.30
2022-08-04T20:29:59.934Z,24.30
2022-08-04T20:33:08.537Z,24.20
2022-08-04T20:36:19.095Z,24.10
2022-08-04T20:39:25.014Z,24.10
2022-08-04T20:42:34.165Z,24.00
2022-08-04T20:45:57.010Z,24.00
2022-08-04T20:49:09.829Z,24.00
2022-08-04T20:52:20.248Z,23.90
2022-08-04T20:55:25.694Z,23.90
2022-08-04T20:58:34.867Z,23.90
2022-08-04T21:01:40.192Z,23.80
2022-08-04T21:04:53.780Z,23.80
2022-08-04T21:08:01.726Z,23.80
2022-08-04T21:11:09.118Z,23.70
2022-08-04T21:14:16.702Z,23.70
2022-08-04T21:17:56.712Z,23.70
2022-08-04T21:20:49.922Z,23.60
2022-08-04T21:23:58.856Z,23.60
2022-08-04T21:27:09.607Z,23.50
2022-08-04T21:30:24.051Z,23.50
2022-08-04T21:33:49.776Z,23.50
2022-08-04T21:36:59.044Z,23.50
2022-08-04T21:43:42.346Z,23.40
2022-08-04T21:46:48.310Z,23.40
2022-08-04T21:49:57.467Z,23.40
2022-08-04T21:53:10.002Z,23.30
2022-08-04T21:56:15.351Z,23.30
2022-08-04T21:59:31.803Z,23.30
2022-08-04T22:02:37.422Z,23.30
2022-08-04T22:05:46.955Z,23.20
2022-08-04T22:08:58.598Z,23.20
2022-08-04T22:12:03.702Z,23.20
2022-08-04T22:15:24.144Z,23.10
2022-08-04T22:18:38.455Z,23.10
2022-08-04T22:21:46.705Z,23.10
2022-08-04T22:24:54.569Z,23.00
2022-08-04T22:28:07.965Z,23.00
2022-08-04T22:31:24.041Z,23.00
2022-08-04T22:34:30.581Z,23.00
2022-08-04T22:37:44.563Z,23.00
2022-08-04T22:41:01.759Z,22.90
2022-08-04T22:44:10.033Z,22.90
2022-08-04T22:47:20.152Z,22.80
2022-08-04T22:50:28.584Z,22.80
2022-08-04T22:53:34.156Z,22.70
2022-08-04T22:56:45.662Z,22.60
2022-08-04T22:59:50.865Z,22.50
2022-08-04T23:02:55.999Z,22.40
2022-08-04T23:06:06.431Z,22.40
2022-08-04T23:09:15.953Z,22.30
2022-08-04T23:12:26.970Z,22.20
2022-08-04T23:15:33.439Z,22.10
2022-08-04T23:18:41.842Z,22.10
2022-08-04T23:22:01.844Z,22.00
2022-08-04T23:25:15.201Z,21.80
2022-08-04T23:28:25.466Z,21.60
2022-08-04T23:31:41.094Z,21.50
2022-08-04T23:34:46.790Z,21.30
2022-08-04T23:37:57.116Z,21.20
2022-08-04T23:41:08.892Z,21.10
2022-08-04T23:44:24.702Z,21.10
2022-08-04T23:48:14.789Z,21.00
2022-08-04T23:50:56.339Z,21.00
2022-08-04T23:54:04.425Z,20.90
2022-08-04T23:57:17.353Z,20.80
